Time;durP1;ratioP1;P1;durP2;ratioP2;P2;SDS_P1;SDS_P2;PMS_P1;PMS_P2;Temp;Humidity;BMP_temperature;BMP_pressure;BME280_temperature;BME280_humidity;BME280_pressure;Samples;Min_cycle;Max_cycle;Signal;HPM_P1;HPM_P2
2023/07/27 00:05:06;;;;;;;1.25;1.08;;;;;;;12.45;100.00;97712.31;18413952;32;20056;-58
2023/07/27 00:15:09;;;;;;;2.45;1.40;;;;;;;12.31;100.00;97701.28;18433354;32;20338;-58
2023/07/27 00:25:11;;;;;;;3.95;0.95;;;;;;;12.26;100.00;97700.50;18431978;32;20053;-58
2023/07/27 00:35:13;;;;;;;2.12;1.17;;;;;;;12.16;100.00;97685.13;18432385;32;20052;-58
2023/07/27 00:45:16;;;;;;;6.35;1.40;;;;;;;12.06;100.00;97672.44;18431809;32;20061;-58
2023/07/27 00:55:19;;;;;;;1.80;1.30;;;;;;;12.03;100.00;97670.25;18392132;32;20068;-58
2023/07/27 01:05:22;;;;;;;2.65;1.37;;;;;;;11.95;100.00;97676.25;18430826;32;20057;-58
2023/07/27 01:15:30;;;;;;;2.62;1.50;;;;;;;11.87;100.00;97664.91;18416523;32;20042;-58
2023/07/27 01:25:56;;;;;;;1.70;1.33;;;;;;;11.86;100.00;97652.44;18430459;32;20065;-58
2023/07/27 01:36:02;;;;;;;1.92;1.30;;;;;;;11.89;100.00;97640.22;18440207;32;20076;-58
2023/07/27 01:46:07;;;;;;;1.95;1.30;;;;;;;11.91;100.00;97627.22;18427446;32;20501;-58
2023/07/27 01:56:11;;;;;;;;;;;;;;;11.86;100.00;97608.28;18441838;32;20056;-58
2023/07/27 02:06:13;;;;;;;3.20;1.50;;;;;;;11.82;100.00;97591.75;18436146;32;19960;-58
2023/07/27 02:16:50;;;;;;;5.70;1.40;;;;;;;11.77;100.00;97593.69;18426694;32;20045;-58
2023/07/27 02:26:54;;;;;;;2.78;1.77;;;;;;;11.76;100.00;97594.78;18439779;32;20076;-58
2023/07/27 02:36:56;;;;;;;2.10;1.50;;;;;;;11.70;100.00;97583.16;18439538;32;20071;-58
2023/07/27 02:46:59;;;;;;;2.60;1.60;;;;;;;11.66;100.00;97565.84;18437741;32;20064;-58
2023/07/27 02:57:01;;;;;;;2.90;1.48;;;;;;;11.66;100.00;97563.97;18438202;32;20061;-58
2023/07/27 03:07:04;;;;;;;2.83;1.77;;;;;;;11.66;100.00;97572.09;18437514;32;20057;-58
2023/07/27 03:17:08;;;;;;;4.12;1.48;;;;;;;11.68;100.00;97563.69;18436997;32;20445;-58
2023/07/27 03:27:10;;;;;;;3.93;1.37;;;;;;;11.75;100.00;97564.19;18436178;32;20064;-58
2023/07/27 03:37:12;;;;;;;2.62;1.75;;;;;;;11.83;100.00;97566.31;18435776;32;20347;-58
2023/07/27 03:47:15;;;;;;;2.10;1.62;;;;;;;11.92;100.00;97561.13;18420793;32;20369;-58
2023/07/27 03:57:17;;;;;;;3.20;1.65;;;;;;;11.99;100.00;97556.22;18434675;32;20076;-58
2023/07/27 04:07:20;;;;;;;4.25;1.50;;;;;;;12.09;100.00;97547.19;18433661;32;20053;-58
2023/07/27 04:17:23;;;;;;;2.20;1.67;;;;;;;12.17;100.00;97560.16;18433705;32;20072;-58
2023/07/27 04:27:25;;;;;;;1.90;1.48;;;;;;;12.27;100.00;97553.81;18433275;32;20045;-58
2023/07/27 04:37:27;;;;;;;2.47;1.55;;;;;;;12.35;100.00;97542.38;18429791;32;20140;-58
2023/07/27 04:47:29;;;;;;;1.80;1.40;;;;;;;12.43;100.00;97543.66;18427837;32;20049;-58
2023/07/27 04:57:32;;;;;;;1.80;1.42;;;;;;;12.58;100.00;97541.88;18417496;32;20053;-58
2023/07/27 05:07:35;;;;;;;4.75;1.67;;;;;;;12.75;100.00;97544.19;18416800;32;20050;-58
2023/07/27 05:17:38;;;;;;;2.12;1.35;;;;;;;12.91;100.00;97533.94;18416820;32;20064;-58
2023/07/27 05:27:40;;;;;;;2.22;1.58;;;;;;;13.10;100.00;97525.88;18430551;32;20378;-58
2023/07/27 05:37:46;;;;;;;3.10;1.58;;;;;;;13.28;100.00;97513.44;18430093;32;20049;-58
2023/07/27 05:47:48;;;;;;;2.30;1.70;;;;;;;13.45;100.00;97538.22;18429671;32;20080;-58
2023/07/27 05:57:51;;;;;;;2.03;1.65;;;;;;;13.63;100.00;97517.59;18429707;32;20057;-58
2023/07/27 06:07:53;;;;;;;2.20;1.65;;;;;;;13.80;100.00;97521.72;18429316;32;20041;-58
2023/07/27 06:17:56;;;;;;;2.47;1.70;;;;;;;14.14;100.00;97526.91;18418386;32;20049;-58
2023/07/27 06:27:58;;;;;;;2.00;1.62;;;;;;;14.45;100.00;97517.41;18433439;32;20384;-58
2023/07/27 06:38:01;;;;;;;2.00;1.30;;;;;;;14.80;100.00;97521.44;18439264;32;20106;-58
2023/07/27 06:48:04;;;;;;;1.70;1.30;;;;;;;15.17;100.00;97519.62;18438448;32;20053;-58
2023/07/27 06:58:07;;;;;;;3.00;2.15;;;;;;;15.52;100.00;97530.06;18411414;32;20471;-59
2023/07/27 07:08:10;;;;;;;2.05;1.60;;;;;;;15.81;100.00;97532.44;18437393;32;20068;-58
2023/07/27 07:18:13;;;;;;;2.90;1.70;;;;;;;16.10;100.00;97528.50;18423032;32;20041;-58
2023/07/27 07:28:18;;;;;;;1.70;1.37;;;;;;;16.31;100.00;97525.25;18435860;32;20106;-58
2023/07/27 07:38:21;;;;;;;2.75;1.83;;;;;;;16.56;100.00;97519.16;18435767;32;20045;-58
2023/07/27 07:48:24;;;;;;;1.93;1.60;;;;;;;16.95;100.00;97514.06;18420879;32;20068;-58
2023/07/27 07:58:27;;;;;;;2.53;1.43;;;;;;;17.38;100.00;97498.94;18420318;32;20446;-58
2023/07/27 08:08:31;;;;;;;1.87;1.48;;;;;;;17.62;100.00;97485.63;18433639;32;20410;-58
2023/07/27 08:18:33;;;;;;;2.30;1.63;;;;;;;17.76;100.00;97492.84;18426746;32;20057;-58
2023/07/27 08:28:36;;;;;;;3.65;2.20;;;;;;;18.17;100.00;97490.75;18432704;32;20138;-59
2023/07/27 08:38:39;;;;;;;2.77;1.90;;;;;;;18.91;100.00;97477.84;18431792;32;20049;-58
2023/07/27 08:48:43;;;;;;;3.07;1.83;;;;;;;19.38;100.00;97477.75;18417207;32;20064;-59
2023/07/27 08:58:46;;;;;;;3.80;2.08;;;;;;;19.57;100.00;97477.31;18417958;32;20067;-59
2023/07/27 09:08:49;;;;;;;4.25;1.83;;;;;;;19.77;100.00;97472.94;18431495;32;20064;-59
2023/07/27 09:18:53;;;;;;;1.87;1.40;;;;;;;19.84;100.00;97471.63;18416751;32;20064;-59
2023/07/27 09:28:55;;;;;;;2.58;1.60;;;;;;;19.89;100.00;97458.50;18430701;32;20115;-59
2023/07/27 09:38:58;;;;;;;2.93;1.73;;;;;;;19.94;100.00;97450.06;18430419;32;20430;-58
2023/07/27 09:49:01;;;;;;;3.03;1.90;;;;;;;20.21;100.00;97460.78;18429471;32;20071;-59
2023/07/27 09:59:05;;;;;;;2.30;1.55;;;;;;;20.40;100.00;97443.81;18428124;32;20488;-59
2023/07/27 10:09:24;;;;;;;1.65;1.40;;;;;;;20.25;100.00;97451.53;18441145;32;20075;-59
2023/07/27 10:19:44;;;;;;;2.92;1.73;;;;;;;20.36;100.00;97432.69;18440930;32;20090;-59
2023/07/27 10:30:09;;;;;;;4.80;1.87;;;;;;;20.74;100.00;97419.84;18426160;32;20057;-59
2023/07/27 10:40:24;;;;;;;2.42;1.50;;;;;;;21.30;100.00;97428.25;18439289;32;20061;-59
2023/07/27 10:50:27;;;;;;;2.05;1.33;;;;;;;21.75;100.00;97420.13;18373494;32;20053;-59
2023/07/27 11:00:38;;;;;;;1.67;1.20;;;;;;;22.58;100.00;97419.59;18367213;32;20155;-59
2023/07/27 11:10:40;;;;;;;2.58;1.20;;;;;;;23.13;100.00;97419.75;18371975;32;20525;-59
2023/07/27 11:20:46;;;;;;;4.95;1.52;;;;;;;23.94;100.00;97410.84;18372791;32;20377;-59
2023/07/27 11:30:52;;;;;;;3.17;1.67;;;;;;;24.78;100.00;97397.31;18372069;32;20094;-59
2023/07/27 11:40:57;;;;;;;2.00;1.50;;;;;;;25.34;90.29;97390.25;18371650;32;20080;-59
2023/07/27 11:51:20;;;;;;;2.60;1.50;;;;;;;25.31;84.45;97385.44;18352750;32;20086;-59
2023/07/27 12:01:26;;;;;;;2.17;1.40;;;;;;;25.10;97.96;97380.41;18371048;32;20112;-59
2023/07/27 12:11:30;;;;;;;2.17;1.37;;;;;;;25.82;97.90;97353.66;18370320;32;20365;-59
2023/07/27 12:21:40;;;;;;;2.05;1.33;;;;;;;25.82;92.00;97336.25;18355724;32;20050;-59
2023/07/27 12:31:43;;;;;;;2.30;1.62;;;;;;;26.45;93.31;97330.91;18354605;32;20374;-59
2023/07/27 12:41:49;;;;;;;3.50;1.70;;;;;;;26.97;84.22;97336.44;18367212;32;20437;-59
2023/07/27 12:51:56;;;;;;;2.10;1.40;;;;;;;27.22;73.98;97320.72;18359858;32;20453;-59
2023/07/27 13:01:59;;;;;;;2.55;1.60;;;;;;;27.89;65.26;97317.81;18353395;32;20042;-59
2023/07/27 13:12:04;;;;;;;2.12;1.58;;;;;;;27.87;67.90;97311.84;18367029;32;20449;-59
2023/07/27 13:22:07;;;;;;;1.77;1.30;;;;;;;27.77;63.53;97313.41;18365882;32;20057;-59
2023/07/27 13:32:10;;;;;;;3.95;1.40;;;;;;;27.46;69.01;97303.78;18376046;32;20101;-59
2023/07/27 13:42:13;;;;;;;1.75;0.93;;;;;;;27.36;65.73;97302.56;18377432;32;20077;-60
2023/07/27 13:52:17;;;;;;;2.40;1.25;;;;;;;27.35;64.95;97285.09;18441410;32;20068;-59
2023/07/27 14:02:20;;;;;;;1.52;1.17;;;;;;;27.20;63.06;97302.87;18427950;32;20169;-59
2023/07/27 14:12:25;;;;;;;2.30;1.27;;;;;;;27.11;62.38;97291.34;18427178;32;20076;-59
2023/07/27 14:22:34;;;;;;;2.78;0.98;;;;;;;27.17;68.48;97278.66;18440612;32;20437;-59
2023/07/27 14:32:38;;;;;;;1.92;1.30;;;;;;;27.97;65.81;97274.94;18440078;32;20490;-59
2023/07/27 14:42:42;;;;;;;2.95;1.35;;;;;;;29.54;55.43;97271.47;18417653;32;20076;-59
2023/07/27 14:52:45;;;;;;;3.83;1.50;;;;;;;28.93;56.39;97283.66;18424379;32;20100;-59
2023/07/27 15:02:49;;;;;;;3.05;1.60;;;;;;;29.33;53.44;97267.63;18438097;32;20369;-59
2023/07/27 15:12:58;;;;;;;2.28;1.37;;;;;;;29.82;51.83;97266.94;18423455;32;20049;-59
2023/07/27 15:23:03;;;;;;;1.90;1.25;;;;;;;28.76;55.47;97256.66;18436877;32;20083;-58
2023/07/27 15:33:07;;;;;;;1.40;1.17;;;;;;;27.79;59.03;97235.22;18415963;32;20050;-58
2023/07/27 15:43:10;;;;;;;1.60;0.93;;;;;;;27.20;63.68;97225.97;18435321;32;20090;-58
2023/07/27 15:53:13;;;;;;;2.10;1.20;;;;;;;26.87;65.25;97213.94;18420831;32;20068;-58
2023/07/27 16:03:16;;;;;;;1.70;1.23;;;;;;;26.66;70.40;97206.28;18420341;32;20491;-58
2023/07/27 16:13:19;;;;;;;1.73;1.30;;;;;;;26.37;70.19;97195.03;18407069;32;20042;-58
2023/07/27 16:23:22;;;;;;;2.33;1.10;;;;;;;25.97;74.16;97182.88;18433235;32;20101;-58
2023/07/27 16:33:26;;;;;;;1.40;1.20;;;;;;;26.14;67.72;97183.41;18418645;32;20053;-58
2023/07/27 16:43:30;;;;;;;1.75;1.05;;;;;;;27.16;66.56;97172.44;18432219;32;20052;-58
2023/07/27 16:53:33;;;;;;;1.02;0.90;;;;;;;26.54;66.97;97173.34;18431664;32;20053;-58
2023/07/27 17:03:36;;;;;;;1.95;1.25;;;;;;;25.94;72.52;97172.56;18416496;32;20103;-58
2023/07/27 17:13:40;;;;;;;1.98;1.33;;;;;;;25.64;73.69;97169.91;18431172;32;20072;-58
2023/07/27 17:23:45;;;;;;;1.75;1.20;;;;;;;25.15;75.29;97180.13;18410322;32;20057;-58
2023/07/27 17:33:48;;;;;;;1.52;1.05;;;;;;;24.83;76.56;97172.22;18416712;32;20064;-58
2023/07/27 17:43:50;;;;;;;2.22;1.40;;;;;;;24.44;86.78;97176.06;18429774;32;20049;-58
2023/07/27 17:53:53;;;;;;;1.87;1.30;;;;;;;23.99;97.54;97181.31;18430038;32;20058;-58
2023/07/27 18:03:57;;;;;;;1.70;1.27;;;;;;;23.73;99.28;97167.47;18415697;32;20350;-58
2023/07/27 18:14:01;;;;;;;2.33;1.25;;;;;;;23.38;100.00;97169.28;18434061;32;20394;-58
2023/07/27 18:24:04;;;;;;;2.17;1.30;;;;;;;22.98;100.00;97162.19;18440212;32;20106;-58
2023/07/27 18:34:23;;;;;;;2.97;1.50;;;;;;;22.53;100.00;97180.16;18428249;32;20054;-58
2023/07/27 18:44:29;;;;;;;2.12;1.40;;;;;;;22.08;100.00;97168.56;18438831;32;20076;-58
2023/07/27 18:54:32;;;;;;;3.92;1.67;;;;;;;21.65;100.00;97174.63;18425335;32;20098;-58
2023/07/27 19:04:35;;;;;;;5.50;3.58;;;;;;;21.18;100.00;97180.84;18423995;32;20068;-58
2023/07/27 19:14:37;;;;;;;3.37;2.92;;;;;;;20.73;100.00;97187.44;18432196;32;20136;-57
2023/07/27 19:24:40;;;;;;;3.17;2.25;;;;;;;20.30;100.00;97186.97;18433728;32;20052;-57
2023/07/27 19:34:43;;;;;;;4.30;3.15;;;;;;;19.91;100.00;97186.53;18436567;32;20164;-57
2023/07/27 19:44:46;;;;;;;3.00;2.70;;;;;;;19.55;100.00;97197.09;18435237;32;20433;-57
2023/07/27 19:54:52;;;;;;;4.15;2.37;;;;;;;19.24;100.00;97195.69;18421041;32;20178;-57
2023/07/27 20:04:55;;;;;;;3.55;2.00;;;;;;;18.95;100.00;97197.44;18434426;32;20053;-57
2023/07/27 20:14:58;;;;;;;2.77;1.70;;;;;;;18.70;100.00;97195.69;18419753;32;20053;-58
2023/07/27 20:25:00;;;;;;;4.30;1.30;;;;;;;18.43;100.00;97198.63;18419709;32;20079;-57
2023/07/27 20:35:03;;;;;;;2.60;1.25;;;;;;;18.15;100.00;97203.78;18405774;32;20087;-57
2023/07/27 20:45:08;;;;;;;3.53;1.60;;;;;;;17.91;100.00;97207.94;18431840;32;20509;-57
2023/07/27 20:55:10;;;;;;;2.00;1.40;;;;;;;17.71;100.00;97198.50;18431921;32;20118;-57
2023/07/27 21:05:13;;;;;;;2.67;1.50;;;;;;;17.53;100.00;97195.06;18411375;32;20138;-57
2023/07/27 21:15:16;;;;;;;2.50;1.90;;;;;;;17.36;100.00;97195.09;18417323;32;20421;-57
2023/07/27 21:25:19;;;;;;;2.40;1.25;;;;;;;17.27;100.00;97187.72;18431066;32;20102;-57
2023/07/27 21:35:22;;;;;;;2.73;1.43;;;;;;;17.17;100.00;97181.81;18430890;32;20327;-57
2023/07/27 21:45:26;;;;;;;3.00;1.40;;;;;;;17.06;100.00;97173.16;18430518;32;20049;-57
2023/07/27 21:55:29;;;;;;;1.60;1.20;;;;;;;17.00;100.00;97171.72;18442757;32;20045;-57
2023/07/27 22:05:32;;;;;;;1.70;1.33;;;;;;;16.91;100.00;97158.91;18441697;32;20065;-57
2023/07/27 22:15:35;;;;;;;4.27;1.57;;;;;;;16.80;100.00;97154.06;18441090;32;20072;-56
2023/07/27 22:25:44;;;;;;;2.10;1.40;;;;;;;16.74;100.00;97153.44;18440541;32;20386;-57
2023/07/27 22:35:46;;;;;;;2.92;1.80;;;;;;;16.67;100.00;97169.50;18440055;32;20066;-57
2023/07/27 22:45:51;;;;;;;2.92;2.05;;;;;;;16.57;100.00;97160.50;18439023;32;20068;-57
2023/07/27 22:55:54;;;;;;;4.57;2.22;;;;;;;16.48;100.00;97167.09;18432414;32;20491;-57
2023/07/27 23:05:57;;;;;;;4.82;1.73;;;;;;;16.33;100.00;97154.72;18437038;32;20045;-57
2023/07/27 23:16:00;;;;;;;2.00;1.57;;;;;;;16.16;100.00;97161.78;18437792;32;20114;-57
2023/07/27 23:26:02;;;;;;;1.80;1.20;;;;;;;16.05;100.00;97139.47;18437316;32;20067;-57
2023/07/27 23:36:10;;;;;;;3.33;1.67;;;;;;;15.99;100.00;97129.00;18423086;32;20456;-56
2023/07/27 23:46:12;;;;;;;2.45;1.73;;;;;;;15.90;100.00;97137.19;18435384;32;20105;-57
2023/07/27 23:56:14;;;;;;;3.12;1.90;;;;;;;15.83;100.00;97126.75;18435176;32;20045;-57
